Time;durP1;ratioP1;P1;durP2;ratioP2;P2;SDS_P1;SDS_P2;PMS_P1;PMS_P2;Temp;Humidity;BMP_temperature;BMP_pressure;BME280_temperature;BME280_humidity;BME280_pressure;Samples;Min_cycle;Max_cycle;Signal;HPM_P1;HPM_P2
2021/06/25 00:00:27;;;;;;;13.80;4.00;;;;;;;22.54;64.97;100727.20;1741129;82;21319;-68
2021/06/25 00:03:00;;;;;;;14.47;4.00;;;;;;;22.51;65.11;100729.76;1740329;82;21248;-68
2021/06/25 00:05:34;;;;;;;7.97;3.85;;;;;;;22.48;65.27;100723.48;1741411;82;21351;-68
2021/06/25 00:08:07;;;;;;;10.55;3.72;;;;;;;22.48;65.34;100722.66;1742219;82;22125;-67
2021/06/25 00:10:40;;;;;;;11.68;3.72;;;;;;;22.45;65.41;100721.75;1741315;82;21268;-68
2021/06/25 00:13:14;;;;;;;9.10;3.65;;;;;;;22.39;65.48;100712.69;1740890;82;21260;-69
2021/06/25 00:15:47;;;;;;;7.28;3.72;;;;;;;22.38;65.64;100716.91;1740778;82;21212;-68
2021/06/25 00:18:20;;;;;;;9.58;3.85;;;;;;;22.35;65.75;100707.97;1742200;82;21276;-68
2021/06/25 00:20:53;;;;;;;9.35;3.83;;;;;;;22.33;65.84;100701.48;1741120;82;21760;-68
2021/06/25 00:23:27;;;;;;;9.03;3.58;;;;;;;22.30;65.92;100699.23;1740769;82;21181;-68
2021/06/25 00:26:00;;;;;;;7.05;3.85;;;;;;;22.27;66.03;100701.47;1741398;82;21276;-69
2021/06/25 00:28:33;;;;;;;9.45;4.20;;;;;;;22.25;66.13;100695.52;1742109;82;21240;-68
2021/06/25 00:31:06;;;;;;;9.73;4.27;;;;;;;22.22;66.21;100703.91;1741088;82;21280;-68
2021/06/25 00:33:39;;;;;;;14.85;4.05;;;;;;;22.19;66.34;100701.67;1740395;82;22042;-69
2021/06/25 00:36:12;;;;;;;10.20;3.85;;;;;;;22.16;66.42;100706.06;1740911;82;21291;-68
2021/06/25 00:38:46;;;;;;;8.55;3.60;;;;;;;22.10;66.58;100700.50;1740262;82;21759;-69
2021/06/25 00:41:19;;;;;;;9.28;3.90;;;;;;;22.07;66.75;100702.73;1741261;82;21221;-69
2021/06/25 00:43:53;;;;;;;11.68;3.80;;;;;;;22.05;66.89;100702.94;1741890;82;21264;-69
2021/06/25 00:46:26;;;;;;;13.05;4.45;;;;;;;22.03;67.00;100701.49;1741259;82;21327;-69
2021/06/25 00:49:01;;;;;;;8.00;4.10;;;;;;;21.98;67.11;100696.77;1741679;82;21166;-69
2021/06/25 00:51:34;;;;;;;6.70;3.80;;;;;;;21.98;67.21;100697.27;1741032;82;21212;-68
2021/06/25 00:54:09;;;;;;;8.65;3.60;;;;;;;21.95;67.32;100701.15;1742112;82;21264;-69
2021/06/25 00:56:43;;;;;;;9.55;3.52;;;;;;;21.94;67.40;100697.36;1740934;82;21288;-69
2021/06/25 00:59:16;;;;;;;9.63;4.08;;;;;;;21.92;67.48;100700.74;1731749;82;21341;-69
2021/06/25 01:01:49;;;;;;;8.28;3.98;;;;;;;21.90;67.55;100691.59;1722191;83;21776;-68
2021/06/25 01:04:22;;;;;;;11.55;4.03;;;;;;;21.88;67.62;100693.64;1721193;83;21809;-68
2021/06/25 01:06:56;;;;;;;12.75;4.50;;;;;;;21.85;67.70;100692.69;1719557;82;21217;-68
2021/06/25 01:09:30;;;;;;;10.55;4.42;;;;;;;21.83;67.81;100701.91;1721224;83;21266;-68
2021/06/25 01:12:07;;;;;;;6.12;3.92;;;;;;;21.81;67.91;100698.59;1720529;83;21801;-68
2021/06/25 01:14:40;;;;;;;9.98;4.12;;;;;;;21.77;68.08;100710.17;1721049;83;21122;-68
2021/06/25 01:17:37;;;;;;;10.23;4.12;;;;;;;21.74;68.18;100694.56;1720367;82;21696;-68
2021/06/25 01:20:14;;;;;;;10.58;4.25;;;;;;;21.71;68.32;100694.95;1728321;83;21146;-68
2021/06/25 01:22:47;;;;;;;11.45;4.05;;;;;;;21.69;68.50;100698.84;1719412;83;21297;-68
2021/06/25 01:25:22;;;;;;;10.15;3.83;;;;;;;21.65;68.56;100702.42;1721475;83;21245;-68
2021/06/25 01:27:58;;;;;;;11.30;4.15;;;;;;;21.63;68.65;100707.63;1719311;83;21225;-69
2021/06/25 01:30:34;;;;;;;9.18;4.20;;;;;;;21.62;68.77;100705.97;1721247;83;21297;-68
2021/06/25 01:33:11;;;;;;;9.60;4.25;;;;;;;21.60;68.90;100694.19;1736336;82;21142;-68
2021/06/25 01:35:43;;;;;;;13.85;4.08;;;;;;;21.61;69.07;100691.85;1736625;82;21190;-69
2021/06/25 01:38:17;;;;;;;10.58;4.17;;;;;;;21.62;69.21;100693.48;1736949;82;21681;-68
2021/06/25 01:40:50;;;;;;;10.93;4.00;;;;;;;21.65;69.27;100696.26;1724015;82;21162;-68
2021/06/25 01:43:26;;;;;;;10.48;3.98;;;;;;;21.68;69.28;100723.86;1731531;83;21209;-68
2021/06/25 01:46:00;;;;;;;14.38;4.10;;;;;;;21.71;69.24;100715.48;1713877;83;21813;-68
2021/06/25 01:48:32;;;;;;;12.13;4.22;;;;;;;21.71;69.24;100716.81;1729548;83;21784;-68
2021/06/25 01:51:07;;;;;;;9.83;3.83;;;;;;;21.73;69.22;100710.77;1721015;83;21249;-68
2021/06/25 01:53:40;;;;;;;13.10;4.03;;;;;;;21.73;69.26;100712.93;1720325;83;21260;-69
2021/06/25 01:56:13;;;;;;;10.68;3.80;;;;;;;21.74;69.33;100713.73;1721224;83;21304;-68
2021/06/25 01:58:47;;;;;;;10.35;4.15;;;;;;;21.74;69.32;100708.39;1723196;82;21185;-69
2021/06/25 02:01:20;;;;;;;9.20;3.87;;;;;;;21.73;69.37;100710.77;1751623;82;21291;-68
2021/06/25 02:03:55;;;;;;;7.05;3.80;;;;;;;21.72;69.43;100713.94;1740355;82;21855;-68
2021/06/25 02:06:28;;;;;;;7.20;3.67;;;;;;;21.72;69.42;100710.44;1740240;82;21804;-68
2021/06/25 02:09:01;;;;;;;8.53;4.47;;;;;;;21.72;69.42;100709.11;1739398;82;21287;-69
2021/06/25 02:11:35;;;;;;;8.28;4.33;;;;;;;21.74;69.45;100703.89;1738482;82;21341;-69
2021/06/25 02:14:09;;;;;;;13.43;4.05;;;;;;;21.76;69.45;100700.52;1739198;82;21154;-69
2021/06/25 02:16:42;;;;;;;11.93;4.58;;;;;;;21.78;69.46;100695.81;1740959;82;21280;-69
2021/06/25 02:19:15;;;;;;;9.88;3.58;;;;;;;21.80;69.47;100679.64;1744346;82;21162;-69
2021/06/25 02:21:49;;;;;;;11.35;3.80;;;;;;;21.83;69.53;100681.37;1745085;82;21253;-68
2021/06/25 02:24:22;;;;;;;11.15;3.92;;;;;;;21.87;69.52;100684.02;1743076;82;21526;-67
2021/06/25 02:26:55;;;;;;;12.60;3.95;;;;;;;21.91;69.49;100682.58;1743057;82;21289;-68
2021/06/25 02:29:28;;;;;;;8.45;4.10;;;;;;;21.96;69.49;100686.81;1743530;82;21339;-67
2021/06/25 02:32:01;;;;;;;8.55;4.22;;;;;;;22.04;69.40;100687.95;1744701;82;21356;-68
2021/06/25 02:34:34;;;;;;;8.58;4.20;;;;;;;22.11;69.21;100685.33;1742722;82;22121;-68
2021/06/25 02:37:07;;;;;;;17.05;5.15;;;;;;;22.18;69.09;100678.17;1741615;82;21451;-69
2021/06/25 02:39:42;;;;;;;17.87;4.00;;;;;;;22.30;68.91;100679.73;1742868;82;21467;-68
2021/06/25 02:42:15;;;;;;;8.98;4.60;;;;;;;22.47;68.65;100676.50;1744723;82;21300;-67
2021/06/25 02:44:48;;;;;;;8.53;4.10;;;;;;;22.67;68.29;100680.53;1742843;82;21201;-69
2021/06/25 02:47:21;;;;;;;7.78;4.08;;;;;;;22.88;67.82;100683.00;1744670;82;21655;-70
2021/06/25 02:49:54;;;;;;;7.90;4.28;;;;;;;23.12;67.19;100681.05;1743063;82;21363;-72
2021/06/25 02:52:27;;;;;;;11.57;4.15;;;;;;;23.32;66.61;100681.02;1746322;82;21236;-70
2021/06/25 02:55:00;;;;;;;9.80;3.70;;;;;;;23.47;66.05;100672.30;1745560;82;21194;-72
2021/06/25 02:57:33;;;;;;;12.17;4.40;;;;;;;23.59;65.63;100669.28;1745810;82;21451;-69
2021/06/25 03:00:09;;;;;;;9.15;3.72;;;;;;;23.72;65.33;100671.89;1744318;81;21809;-71
2021/06/25 03:02:43;;;;;;;10.82;3.45;;;;;;;23.83;64.99;100665.08;1740981;82;21330;-71
2021/06/25 03:05:15;;;;;;;;;;;;;;;23.93;64.54;100671.59;1735578;83;21209;-74
2021/06/25 03:07:48;;;;;;;6.83;4.30;;;;;;;24.06;64.27;100668.05;1734093;82;20230;-71
2021/06/25 03:10:21;;;;;;;11.80;4.00;;;;;;;24.16;64.00;100671.13;1733987;83;21405;-73
2021/06/25 03:12:54;;;;;;;11.40;4.42;;;;;;;24.27;63.55;100666.92;1734063;83;21181;-74
2021/06/25 03:15:27;;;;;;;10.60;3.87;;;;;;;24.37;63.21;100661.42;1733499;83;21149;-74
2021/06/25 03:18:00;;;;;;;9.00;3.98;;;;;;;24.54;62.89;100651.84;1734531;83;22007;-75
2021/06/25 03:20:34;;;;;;;9.15;3.90;;;;;;;24.76;62.56;100665.67;1732269;82;21253;-75
2021/06/25 03:23:08;;;;;;;8.25;4.05;;;;;;;24.93;62.07;100662.78;1734283;83;21343;-75
2021/06/25 03:25:41;;;;;;;11.80;4.20;;;;;;;25.09;61.52;100666.75;1732934;83;21203;-75
2021/06/25 03:28:13;;;;;;;8.73;4.35;;;;;;;25.25;61.00;100664.83;1734010;83;21605;-75
2021/06/25 03:30:46;;;;;;;8.43;4.08;;;;;;;25.41;60.49;100665.61;1733960;83;22121;-75
2021/06/25 03:33:19;;;;;;;7.40;4.30;;;;;;;25.55;60.06;100663.63;1733639;83;21655;-75
2021/06/25 03:35:52;;;;;;;10.85;4.62;;;;;;;25.78;59.72;100669.12;1732973;83;21832;-76
2021/06/25 03:38:25;;;;;;;8.38;4.10;;;;;;;26.06;58.99;100661.32;1733447;83;21237;-76
2021/06/25 03:41:00;;;;;;;16.10;4.37;;;;;;;26.33;58.03;100664.49;1733674;82;21311;-75
2021/06/25 03:43:36;;;;;;;13.20;4.50;;;;;;;26.61;57.38;100653.93;1733043;83;21605;-74
2021/06/25 03:46:12;;;;;;;5.25;3.40;;;;;;;26.89;56.66;100657.34;1735050;83;21296;-73
2021/06/25 03:48:46;;;;;;;8.13;3.92;;;;;;;27.78;54.62;100660.94;1734363;82;21308;-74
2021/06/25 03:51:20;;;;;;;;;;;;;;;27.78;54.62;100660.94;1738163;83;21272;-72
2021/06/25 03:53:55;;;;;;;9.03;3.80;;;;;;;28.37;53.29;100656.48;1710761;83;20287;-73
2021/06/25 03:56:32;;;;;;;8.45;3.80;;;;;;;28.89;51.98;100655.74;1711757;83;21279;-71
2021/06/25 03:59:04;;;;;;;;;;;;;;;29.46;50.43;100658.19;1719619;83;21323;-71
2021/06/25 04:01:37;;;;;;;10.20;3.65;;;;;;;29.87;49.25;100656.31;1705605;83;20227;-70
2021/06/25 04:04:13;;;;;;;8.83;4.03;;;;;;;30.17;48.33;100655.80;1730104;82;21307;-71
2021/06/25 04:06:46;;;;;;;7.80;3.52;;;;;;;30.55;47.29;100653.78;1732311;81;21201;-73
2021/06/25 04:09:19;;;;;;;10.28;3.33;;;;;;;30.76;46.24;100652.08;1733218;83;21768;-71
2021/06/25 04:11:52;;;;;;;11.25;3.83;;;;;;;31.00;45.79;100647.92;1747111;81;21758;-73
2021/06/25 04:14:26;;;;;;;10.43;3.77;;;;;;;31.45;44.87;100647.95;1746420;82;21887;-72
2021/06/25 04:16:58;;;;;;;;;;;;;;;32.06;43.73;100658.47;1746264;82;21319;-71
2021/06/25 04:19:33;;;;;;;7.30;3.05;;;;;;;32.77;42.39;100646.63;1735897;82;20288;-72
2021/06/25 04:22:06;;;;;;;11.90;3.52;;;;;;;33.36;40.98;100654.97;1746939;82;21362;-72
2021/06/25 04:24:39;;;;;;;8.80;3.02;;;;;;;33.91;39.62;100652.58;1746742;82;21288;-72
2021/06/25 04:27:11;;;;;;;;;;;;;;;34.49;38.24;100641.31;1750002;82;21280;-75
2021/06/25 04:29:45;;;;;;;11.75;3.40;;;;;;;35.14;37.14;100642.12;1739049;82;20658;-75
2021/06/25 04:32:20;;;;;;;12.45;3.42;;;;;;;35.66;35.97;100643.97;1748174;82;22136;-74
2021/06/25 04:34:53;;;;;;;11.48;3.20;;;;;;;36.15;35.07;100644.14;1747459;82;21180;-73
2021/06/25 04:37:25;;;;;;;;;;;;;;;36.46;34.25;100638.48;1749366;82;21541;-74
2021/06/25 04:39:58;;;;;;;10.25;3.10;;;;;;;36.72;33.72;100636.13;1725432;82;20270;-74
2021/06/25 04:42:31;;;;;;;13.13;2.92;;;;;;;36.92;33.48;100646.17;1725572;82;21135;-73
2021/06/25 04:45:05;;;;;;;8.75;3.22;;;;;;;37.03;33.20;100644.86;1708956;84;21226;-73
2021/06/25 04:47:39;;;;;;;11.18;2.85;;;;;;;37.04;31.18;100648.41;1707737;84;21266;-73
2021/06/25 04:50:13;;;;;;;11.57;3.08;;;;;;;36.86;31.20;100641.05;1708427;84;21384;-72
2021/06/25 04:56:55;;;;;;;3.75;2.37;;;;;;;36.85;31.02;100636.73;1706886;84;21230;-71
2021/06/25 05:03:39;;;;;;;5.60;2.42;;;;;;;37.48;29.46;100640.44;1670546;84;21180;-69
2021/06/25 05:14:18;;;;;;;7.50;2.33;;;;;;;37.10;29.65;100632.17;1686221;85;21973;-73
2021/06/25 05:16:52;;;;;;;10.78;2.60;;;;;;;37.30;29.53;100648.72;1684820;85;21198;-71
2021/06/25 05:19:25;;;;;;;14.70;2.95;;;;;;;37.96;29.05;100650.34;1686017;85;21345;-74
2021/06/25 05:21:59;;;;;;;9.10;2.70;;;;;;;38.67;28.44;100645.94;1684786;85;21207;-74
2021/06/25 05:28:42;;;;;;;6.30;1.98;;;;;;;39.82;26.07;100643.81;1743854;82;21152;-77
2021/06/25 05:31:15;;;;;;;18.73;2.77;;;;;;;40.54;25.41;100649.50;1743345;82;21449;-75
2021/06/25 05:33:49;;;;;;;5.42;2.05;;;;;;;41.02;24.48;100650.59;1743791;82;21304;-75
2021/06/25 05:36:22;;;;;;;3.67;1.80;;;;;;;41.38;22.70;100646.26;1743699;82;22152;-75
2021/06/25 05:39:02;;;;;;;13.15;2.62;;;;;;;41.46;21.92;100644.60;1744123;82;21183;-78
2021/06/25 05:41:46;;;;;;;8.00;2.05;;;;;;;41.53;21.71;100639.39;1744336;82;22013;-76
2021/06/25 05:44:19;;;;;;;8.65;2.05;;;;;;;41.77;21.37;100640.95;1743632;82;22062;-77
2021/06/25 05:46:52;;;;;;;11.05;2.30;;;;;;;42.00;20.86;100649.66;1742889;82;21406;-78
2021/06/25 05:49:25;;;;;;;8.70;2.33;;;;;;;42.17;20.89;100646.80;1746001;82;21270;-76
2021/06/25 05:52:00;;;;;;;11.22;2.25;;;;;;;42.16;20.54;100647.92;1743982;81;21324;-73
2021/06/25 05:54:33;;;;;;;9.10;2.10;;;;;;;42.19;20.75;100650.81;1744213;82;21285;-73
2021/06/25 05:57:06;;;;;;;6.75;2.00;;;;;;;42.48;20.17;100647.70;1743439;82;21367;-72
2021/06/25 05:59:39;;;;;;;9.73;2.10;;;;;;;42.65;20.27;100644.80;1744405;82;21281;-73
2021/06/25 06:02:12;;;;;;;8.30;2.08;;;;;;;42.92;19.88;100643.39;1743380;82;21320;-73
2021/06/25 06:04:45;;;;;;;8.03;1.90;;;;;;;43.20;19.39;100642.94;1740298;81;21861;-73
2021/06/25 06:07:18;;;;;;;15.18;2.17;;;;;;;43.57;18.90;100641.00;1728031;81;21353;-73
2021/06/25 06:09:52;;;;;;;9.65;2.20;;;;;;;44.01;18.91;100642.17;1728636;83;21849;-73
2021/06/25 06:12:26;;;;;;;9.55;2.40;;;;;;;44.38;18.44;100641.44;1720527;83;21595;-71
2021/06/25 06:14:59;;;;;;;8.78;2.27;;;;;;;44.66;17.72;100640.87;1697982;84;21211;-71
2021/06/25 06:17:44;;;;;;;13.70;2.50;;;;;;;44.74;17.69;100645.41;1697136;84;21896;-70
2021/06/25 06:20:20;;;;;;;31.48;4.20;;;;;;;44.87;17.95;100637.88;1698048;84;21305;-71
2021/06/25 06:31:27;;;;;;;5.22;2.00;;;;;;;45.51;16.83;100625.58;1698069;84;22094;-70
2021/06/25 06:34:12;;;;;;;8.00;2.37;;;;;;;45.62;16.69;100627.45;1697934;84;21345;-68
2021/06/25 06:36:46;;;;;;;6.90;2.65;;;;;;;45.80;16.47;100631.98;1696518;84;21210;-69
2021/06/25 06:39:21;;;;;;;11.30;2.15;;;;;;;45.96;16.52;100632.16;1675306;84;21477;-68
2021/06/25 06:41:54;;;;;;;11.73;2.37;;;;;;;46.12;15.96;100622.98;1696932;84;21659;-69
2021/06/25 06:44:27;;;;;;;6.42;1.92;;;;;;;46.07;16.24;100629.02;1695977;84;21325;-70
2021/06/25 06:47:00;;;;;;;17.60;2.90;;;;;;;46.26;16.13;100632.95;1693894;84;21321;-68
2021/06/25 06:49:33;;;;;;;7.50;2.10;;;;;;;46.65;16.14;100632.52;1692800;84;21223;-68
2021/06/25 06:52:07;;;;;;;7.62;1.80;;;;;;;46.88;15.25;100625.62;1693841;84;21383;-69
2021/06/25 06:54:40;;;;;;;11.15;2.10;;;;;;;46.86;15.54;100626.59;1696113;84;21310;-70
2021/06/25 06:57:13;;;;;;;8.83;2.17;;;;;;;47.06;15.80;100623.11;1695791;84;21583;-71
2021/06/25 06:59:47;;;;;;;9.00;2.37;;;;;;;47.14;15.46;100629.83;1694986;84;21318;-70
2021/06/25 07:02:20;;;;;;;21.05;3.62;;;;;;;47.26;15.44;100617.72;1697857;84;21368;-69
2021/06/25 07:04:53;;;;;;;11.40;2.70;;;;;;;47.24;15.67;100623.66;1696020;84;22031;-71
2021/06/25 07:07:26;;;;;;;12.18;2.20;;;;;;;47.54;15.27;100615.95;1709885;82;21339;-69
2021/06/25 07:10:00;;;;;;;11.83;2.42;;;;;;;47.91;14.81;100626.59;1709861;83;21496;-69
2021/06/25 07:12:34;;;;;;;8.53;2.37;;;;;;;48.01;14.33;100623.11;1701816;83;21231;-68
2021/06/25 07:15:09;;;;;;;4.25;1.70;;;;;;;47.93;14.48;100631.17;1717203;83;21196;-68
2021/06/25 07:17:42;;;;;;;10.20;2.60;;;;;;;48.03;14.38;100631.27;1713563;83;22197;-69
2021/06/25 07:20:15;;;;;;;9.63;2.60;;;;;;;48.11;14.32;100626.61;1711740;83;21305;-69
2021/06/25 07:22:47;;;;;;;16.42;3.15;;;;;;;48.06;14.25;100628.95;1716752;83;21850;-69
2021/06/25 07:25:20;;;;;;;11.00;2.22;;;;;;;48.02;14.40;100623.34;1720631;83;22097;-69
2021/06/25 07:27:53;;;;;;;11.85;2.33;;;;;;;48.02;14.46;100626.11;1720644;83;21868;-69
2021/06/25 07:30:27;;;;;;;30.08;3.72;;;;;;;48.10;14.59;100618.09;1713278;83;21238;-68
2021/06/25 07:33:02;;;;;;;6.90;2.15;;;;;;;48.05;14.79;100617.62;1712663;83;21376;-70
2021/06/25 07:39:44;;;;;;;40.35;5.42;;;;;;;47.59;15.41;100619.20;1718395;83;21203;-70
2021/06/25 07:42:17;;;;;;;12.93;2.70;;;;;;;47.65;15.32;100622.46;1715422;83;21320;-68
2021/06/25 07:44:51;;;;;;;24.87;3.60;;;;;;;47.74;15.30;100620.20;1711651;83;21344;-69
2021/06/25 07:47:24;;;;;;;6.85;2.45;;;;;;;47.95;15.08;100614.93;1710744;83;21348;-68
2021/06/25 07:49:57;;;;;;;6.37;2.42;;;;;;;48.37;14.92;100616.02;1709574;83;21238;-70
2021/06/25 07:52:30;;;;;;;8.25;2.37;;;;;;;48.57;14.74;100625.75;1712612;83;21761;-72
2021/06/25 07:55:04;;;;;;;11.57;2.92;;;;;;;48.47;14.37;100618.89;1711457;83;21298;-72
2021/06/25 07:57:37;;;;;;;8.00;2.17;;;;;;;48.14;15.01;100612.59;1712569;83;21320;-69
2021/06/25 08:00:12;;;;;;;11.00;2.50;;;;;;;47.80;15.17;100613.16;1711518;83;21312;-71
2021/06/25 08:02:46;;;;;;;9.30;2.98;;;;;;;47.45;15.70;100619.02;1712895;83;21356;-68
2021/06/25 08:05:20;;;;;;;26.10;13.50;;;;;;;47.35;15.55;100618.25;1711525;83;21336;-69
2021/06/25 08:07:53;;;;;;;18.48;3.47;;;;;;;47.35;15.24;100620.44;1703310;83;21325;-69
2021/06/25 08:10:26;;;;;;;16.12;3.90;;;;;;;47.30;15.28;100613.02;1696677;84;21337;-71
2021/06/25 08:13:00;;;;;;;8.75;2.37;;;;;;;47.20;15.33;100605.34;1698019;84;21845;-71
2021/06/25 08:15:33;;;;;;;7.75;2.08;;;;;;;47.16;15.44;100615.01;1696750;84;21953;-69
2021/06/25 08:18:06;;;;;;;10.85;2.52;;;;;;;47.07;15.45;100608.12;1695705;84;22071;-70
2021/06/25 08:20:39;;;;;;;8.10;1.82;;;;;;;47.00;15.80;100606.02;1696631;84;21337;-71
2021/06/25 08:23:12;;;;;;;6.67;1.90;;;;;;;46.92;15.61;100607.07;1697930;84;21298;-71
2021/06/25 08:25:45;;;;;;;12.82;3.00;;;;;;;46.79;15.70;100595.18;1696747;84;21386;-71
2021/06/25 08:28:19;;;;;;;9.90;2.65;;;;;;;46.59;15.63;100594.42;1697898;84;22204;-71
2021/06/25 08:30:52;;;;;;;14.68;2.92;;;;;;;46.25;16.07;100597.53;1696480;84;21346;-72
2021/06/25 08:33:25;;;;;;;16.82;3.37;;;;;;;45.97;16.21;100595.03;1697860;84;21399;-72
2021/06/25 08:35:59;;;;;;;7.70;2.52;;;;;;;45.86;16.07;100587.66;1696625;84;21928;-70
2021/06/25 08:42:42;;;;;;;19.75;3.35;;;;;;;45.33;16.45;100590.64;1699933;84;21274;-74
2021/06/25 08:45:15;;;;;;;12.30;4.87;;;;;;;44.91;17.59;100589.59;1697245;84;21230;-76
2021/06/25 08:47:51;;;;;;;7.22;3.95;;;;;;;44.84;17.55;100592.99;1697716;84;21987;-74
2021/06/25 08:50:25;;;;;;;5.35;2.12;;;;;;;44.71;17.40;100592.25;1696254;84;21394;-75
2021/06/25 08:53:01;;;;;;;14.40;4.37;;;;;;;44.61;17.54;100589.23;1697936;84;21657;-75
2021/06/25 08:55:43;;;;;;;10.40;2.92;;;;;;;44.58;18.06;100594.08;1696366;84;21815;-72
2021/06/25 08:58:14;;;;;;;7.28;2.12;;;;;;;44.40;18.29;100599.70;1697496;84;21203;-73
2021/06/25 09:00:47;;;;;;;8.33;3.52;;;;;;;44.18;18.69;100590.04;1695151;84;21227;-72
2021/06/25 09:03:27;;;;;;;6.45;2.22;;;;;;;44.03;18.90;100588.00;1685017;85;21198;-69
2021/06/25 09:06:12;;;;;;;5.40;1.80;;;;;;;43.68;19.06;100582.83;1681485;84;22100;-70
2021/06/25 09:08:47;;;;;;;9.93;2.65;;;;;;;43.21;19.66;100581.96;1701995;83;21197;-71
2021/06/25 09:11:23;;;;;;;9.15;2.50;;;;;;;42.78;20.03;100583.08;1705940;84;21339;-70
2021/06/25 09:14:03;;;;;;;6.70;2.05;;;;;;;42.60;19.75;100579.75;1708266;84;21279;-69
2021/06/25 09:16:38;;;;;;;5.97;2.10;;;;;;;42.39;20.05;100587.25;1679280;85;21268;-70
2021/06/25 09:19:19;;;;;;;13.13;2.08;;;;;;;42.19;19.92;100579.84;1702151;84;21605;-69
2021/06/25 09:26:09;;;;;;;8.95;2.10;;;;;;;41.26;19.90;100577.44;1697264;82;21181;-71
2021/06/25 09:28:45;;;;;;;4.75;1.77;;;;;;;40.92;20.93;100580.37;1708576;83;21189;-68
2021/06/25 09:31:28;;;;;;;4.45;1.80;;;;;;;40.84;20.20;100580.61;1705855;84;22152;-69
2021/06/25 09:38:16;;;;;;;8.95;2.27;;;;;;;40.18;21.53;100580.70;1707079;84;21299;-68
2021/06/25 09:41:06;;;;;;;14.43;2.50;;;;;;;39.72;22.62;100583.27;1707111;84;21193;-67
2021/06/25 09:43:45;;;;;;;6.20;2.02;;;;;;;39.48;22.54;100578.80;1706535;84;21245;-69
2021/06/25 09:46:21;;;;;;;6.08;2.52;;;;;;;39.22;22.72;100573.84;1661984;84;21344;-69
2021/06/25 09:48:56;;;;;;;12.68;2.87;;;;;;;39.19;23.23;100573.91;1684333;84;21346;-69
2021/06/25 09:51:31;;;;;;;8.90;2.25;;;;;;;39.06;23.17;100574.80;1685878;85;21631;-67
2021/06/25 10:03:52;;;;;;;9.38;2.20;;;;;;;38.26;25.16;100570.31;1706415;84;21342;-66
2021/06/25 10:06:32;;;;;;;8.90;2.17;;;;;;;38.10;24.72;100582.76;1705822;84;21323;-67
2021/06/25 10:09:07;;;;;;;14.43;2.70;;;;;;;37.98;24.91;100601.64;1703845;83;21231;-66
2021/06/25 10:11:50;;;;;;;25.62;4.75;;;;;;;37.88;24.87;100580.00;1701994;84;22040;-67
2021/06/25 10:14:23;;;;;;;20.27;3.15;;;;;;;37.85;24.08;100588.03;1698688;83;21384;-67
2021/06/25 10:17:01;;;;;;;10.03;2.35;;;;;;;37.72;24.41;100581.45;1705050;84;21199;-67
2021/06/25 10:19:51;;;;;;;6.03;2.47;;;;;;;37.51;24.67;100568.81;1704551;84;21242;-66
2021/06/25 10:22:25;;;;;;;4.20;2.25;;;;;;;37.34;25.65;100569.97;1704731;84;21337;-68
2021/06/25 10:24:58;;;;;;;4.83;1.92;;;;;;;37.32;26.32;100569.48;1700253;84;22081;-68
2021/06/25 10:27:31;;;;;;;30.82;4.53;;;;;;;37.39;25.72;100566.35;1694986;84;21561;-67
2021/06/25 10:30:06;;;;;;;13.20;2.50;;;;;;;37.39;25.46;100560.34;1696092;84;21194;-65
2021/06/25 10:32:41;;;;;;;9.60;2.40;;;;;;;37.41;25.30;100555.92;1695003;84;21223;-67
2021/06/25 10:35:16;;;;;;;11.40;2.58;;;;;;;37.38;25.59;100561.44;1696106;84;22099;-67
2021/06/25 10:37:49;;;;;;;4.40;1.90;;;;;;;37.37;25.52;100559.81;1694864;84;21227;-65
2021/06/25 10:44:45;;;;;;;22.45;2.95;;;;;;;37.17;24.98;100552.59;1695926;84;21147;-65
2021/06/25 10:47:31;;;;;;;8.78;2.40;;;;;;;36.91;25.16;100553.09;1695372;84;21332;-66
2021/06/25 10:50:13;;;;;;;11.63;1.87;;;;;;;36.88;25.58;100548.78;1695925;84;21242;-65
2021/06/25 10:53:05;;;;;;;13.65;2.30;;;;;;;36.80;24.14;100538.03;1694933;84;22031;-65
2021/06/25 10:55:46;;;;;;;8.60;2.00;;;;;;;36.79;24.88;100546.51;1678247;84;21373;-66
2021/06/25 10:58:26;;;;;;;5.65;1.60;;;;;;;36.77;24.04;100558.28;1694867;84;21226;-65
2021/06/25 11:01:01;;;;;;;12.10;2.42;;;;;;;36.73;23.50;100547.18;1696170;84;21258;-66
2021/06/25 11:03:45;;;;;;;7.22;2.12;;;;;;;36.70;24.06;100552.42;1694983;84;21214;-66
2021/06/25 11:06:52;;;;;;;6.92;1.75;;;;;;;36.68;23.51;100540.45;1695627;83;22148;-66
2021/06/25 11:09:28;;;;;;;10.18;1.90;;;;;;;36.67;23.79;100557.10;1695991;84;21358;-66
2021/06/25 11:12:27;;;;;;;9.10;2.10;;;;;;;36.66;22.03;100548.14;1687350;83;21307;-66
2021/06/25 11:15:12;;;;;;;15.65;6.00;;;;;;;36.66;21.99;100551.41;1677402;84;21395;-68
2021/06/25 11:17:55;;;;;;;7.67;3.70;;;;;;;36.62;21.52;100548.46;1701902;83;21546;-67
2021/06/25 11:20:39;;;;;;;14.93;9.35;;;;;;;36.61;21.45;100557.77;1712658;83;21531;-69
2021/06/25 11:23:21;;;;;;;13.38;3.50;;;;;;;36.62;22.00;100559.92;1710111;83;21301;-69
2021/06/25 11:25:59;;;;;;;17.00;4.28;;;;;;;36.61;22.68;100540.05;1706964;84;21199;-69
2021/06/25 11:28:39;;;;;;;9.78;4.37;;;;;;;36.58;23.24;100543.36;1708105;84;21237;-69
2021/06/25 11:31:23;;;;;;;8.30;3.20;;;;;;;36.59;23.35;100535.42;1713016;83;21175;-67
2021/06/25 11:38:00;;;;;;;11.18;2.20;;;;;;;36.62;21.98;100524.46;1710496;82;20234;-66
2021/06/25 11:40:49;;;;;;;6.75;2.85;;;;;;;36.61;21.57;100517.41;1711079;83;22032;-67
2021/06/25 11:43:22;;;;;;;3.65;1.70;;;;;;;36.62;22.32;100523.09;1699254;83;21325;-66
2021/06/25 11:45:56;;;;;;;4.87;1.95;;;;;;;36.58;21.54;100517.45;1715799;82;21317;-68
2021/06/25 11:48:33;;;;;;;4.87;1.57;;;;;;;36.58;22.28;100514.73;1714752;82;21792;-68
2021/06/25 11:51:06;;;;;;;7.35;1.80;;;;;;;36.57;22.56;100509.58;1694711;83;21304;-67
2021/06/25 11:53:45;;;;;;;5.97;1.77;;;;;;;36.53;22.03;100506.64;1711924;83;21218;-66
2021/06/25 11:56:25;;;;;;;9.50;1.80;;;;;;;36.46;22.33;100503.50;1713140;82;21324;-69
2021/06/25 11:59:08;;;;;;;9.08;1.80;;;;;;;36.43;22.38;100501.33;1712094;82;21224;-67
2021/06/25 12:01:54;;;;;;;2.80;1.50;;;;;;;36.40;22.04;100507.38;1717278;82;21556;-67
2021/06/25 12:04:42;;;;;;;3.92;1.50;;;;;;;36.34;22.58;100501.23;1714134;83;21340;-68
2021/06/25 12:07:16;;;;;;;3.55;1.60;;;;;;;36.34;22.10;100499.88;1714307;82;21258;-72
2021/06/25 12:14:06;;;;;;;3.15;1.80;;;;;;;36.26;22.34;100503.82;1712261;83;21234;-69
2021/06/25 12:20:28;;;;;;;4.92;1.60;;;;;;;36.19;21.33;100498.77;1713452;83;22014;-69
2021/06/25 12:23:07;;;;;;;5.62;1.80;;;;;;;36.15;22.54;100510.03;1713728;83;21202;-68
2021/06/25 12:25:48;;;;;;;8.63;1.82;;;;;;;36.16;22.21;100506.75;1711863;83;21253;-68
2021/06/25 12:28:23;;;;;;;10.30;1.92;;;;;;;36.16;22.15;100505.39;1712430;83;21337;-67
2021/06/25 12:31:00;;;;;;;11.95;1.85;;;;;;;36.16;22.62;100492.55;1712740;83;21409;-70
2021/06/25 12:33:35;;;;;;;7.70;2.00;;;;;;;36.15;21.66;100494.22;1712341;83;21360;-68
2021/06/25 12:40:37;;;;;;;11.03;1.75;;;;;;;36.13;22.64;100498.62;1711908;83;21237;-67
